Time;durP1;ratioP1;P1;durP2;ratioP2;P2;SDS_P1;SDS_P2;PMS_P1;PMS_P2;Temp;Humidity;BMP_temperature;BMP_pressure;BME280_temperature;BME280_humidity;BME280_pressure;Samples;Min_cycle;Max_cycle;Signal;HPM_P1;HPM_P2
2021/01/18 00:00:36;;;;;;;8.57;4.00;;;;;;;1.31;100.00;96827.16;5060315;28;20204;-72
2021/01/18 00:03:02;;;;;;;8.47;3.93;;;;;;;1.25;100.00;96827.56;5059757;28;20204;-73
2021/01/18 00:05:29;;;;;;;7.43;4.33;;;;;;;1.35;100.00;96835.53;5059552;28;20216;-72
2021/01/18 00:07:55;;;;;;;5.70;3.90;;;;;;;1.35;100.00;96833.78;5060041;28;20202;-73
2021/01/18 00:10:22;;;;;;;6.60;3.67;;;;;;;1.44;100.00;96832.28;5059553;28;20225;-70
2021/01/18 00:12:51;;;;;;;5.27;3.50;;;;;;;1.41;100.00;96833.38;5059479;28;20215;-71
2021/01/18 00:15:19;;;;;;;5.20;3.50;;;;;;;1.47;100.00;96838.13;5059329;28;20281;-73
2021/01/18 00:17:45;;;;;;;5.73;3.37;;;;;;;1.43;100.00;96841.88;5059548;28;20703;-72
2021/01/18 00:20:13;;;;;;;6.13;3.40;;;;;;;1.47;100.00;96835.53;5059672;28;20227;-73
2021/01/18 00:22:40;;;;;;;5.20;3.17;;;;;;;1.46;100.00;96833.84;5059625;28;20220;-72
2021/01/18 00:25:08;;;;;;;5.37;3.10;;;;;;;1.54;100.00;96834.16;5058681;28;20576;-72
2021/01/18 00:27:34;;;;;;;5.10;3.27;;;;;;;1.41;100.00;96828.19;5059167;28;20207;-72
2021/01/18 00:30:04;;;;;;;6.83;3.20;;;;;;;1.43;100.00;96826.28;5059809;28;20204;-71
2021/01/18 00:32:30;;;;;;;5.87;2.90;;;;;;;1.40;100.00;96831.72;5059608;28;20258;-72
2021/01/18 00:34:56;;;;;;;5.43;3.47;;;;;;;1.41;100.00;96833.38;5058815;28;20294;-71
2021/01/18 00:37:22;;;;;;;4.90;3.00;;;;;;;1.44;100.00;96832.28;5059163;28;20322;-72
2021/01/18 00:39:48;;;;;;;4.80;3.10;;;;;;;1.57;100.00;96823.56;5059525;28;20735;-73
2021/01/18 00:42:19;;;;;;;5.70;3.77;;;;;;;1.52;100.00;96824.81;5058658;28;20205;-72
2021/01/18 00:44:45;;;;;;;5.67;3.50;;;;;;;1.49;100.00;96828.47;5058769;28;20258;-73
2021/01/18 00:47:12;;;;;;;6.23;3.07;;;;;;;1.60;100.00;96822.50;5058841;28;20694;-71
2021/01/18 00:49:38;;;;;;;6.10;3.80;;;;;;;1.54;100.00;96833.31;5058946;28;20209;-73
2021/01/18 00:52:04;;;;;;;8.17;4.30;;;;;;;1.49;100.00;96831.06;5058671;28;20203;-70
2021/01/18 00:54:30;;;;;;;8.07;4.13;;;;;;;1.51;100.00;96829.16;5059324;28;20221;-72
2021/01/18 00:56:56;;;;;;;7.60;3.87;;;;;;;1.50;100.00;96827.53;5058182;28;20342;-73
2021/01/18 00:59:22;;;;;;;5.97;3.50;;;;;;;1.43;100.00;96828.88;5059048;28;20840;-70
2021/01/18 01:01:48;;;;;;;6.53;3.10;;;;;;;1.40;100.00;96818.72;5059169;28;20204;-71
2021/01/18 01:04:15;;;;;;;6.20;3.40;;;;;;;1.37;100.00;96824.13;5058929;28;20686;-72
2021/01/18 01:06:41;;;;;;;5.17;3.07;;;;;;;1.40;100.00;96815.28;5057989;28;20220;-70
2021/01/18 01:09:07;;;;;;;6.80;3.20;;;;;;;1.31;100.00;96811.59;5058461;28;20208;-73
2021/01/18 01:11:33;;;;;;;10.17;3.27;;;;;;;1.37;100.00;96815.50;5058868;28;20276;-73
2021/01/18 01:13:59;;;;;;;6.17;3.23;;;;;;;1.28;100.00;96811.78;5058529;28;20209;-70
2021/01/18 01:16:25;;;;;;;4.80;2.87;;;;;;;1.28;100.00;96816.16;5057970;28;20223;-71
2021/01/18 01:18:51;;;;;;;5.20;3.10;;;;;;;1.30;100.00;96820.31;5058710;28;20212;-73
2021/01/18 01:21:18;;;;;;;5.90;2.90;;;;;;;1.34;100.00;96823.53;5057902;28;20589;-72
2021/01/18 01:23:44;;;;;;;6.00;3.47;;;;;;;1.22;100.00;96822.59;5058537;28;20211;-72
2021/01/18 01:26:10;;;;;;;6.00;3.27;;;;;;;1.32;100.00;96831.41;5057633;28;20239;-72
2021/01/18 01:28:36;;;;;;;5.27;3.20;;;;;;;1.20;100.00;96836.63;5058259;28;20376;-72
2021/01/18 01:31:02;;;;;;;5.20;3.30;;;;;;;1.21;100.00;96835.69;5058376;28;20735;-71
2021/01/18 01:33:28;;;;;;;8.67;3.23;;;;;;;1.23;100.00;96829.47;5058466;28;20212;-72
2021/01/18 01:35:54;;;;;;;7.27;3.40;;;;;;;1.22;100.00;96835.59;5057508;28;20260;-72
2021/01/18 01:38:21;;;;;;;7.57;3.10;;;;;;;1.28;100.00;96826.53;5057779;28;20281;-71
2021/01/18 01:40:47;;;;;;;7.07;3.63;;;;;;;1.31;100.00;96831.50;5058125;28;20218;-72
2021/01/18 01:43:13;;;;;;;8.03;3.10;;;;;;;1.34;100.00;96820.94;5058052;28;20548;-72
2021/01/18 01:45:39;;;;;;;5.33;3.43;;;;;;;1.40;100.00;96821.31;5056875;28;20235;-72
2021/01/18 01:48:06;;;;;;;5.30;3.10;;;;;;;1.49;100.00;96820.69;5058521;28;20283;-72
2021/01/18 01:50:36;;;;;;;6.23;3.43;;;;;;;1.34;100.00;96826.13;5058144;28;20218;-72
2021/01/18 01:53:08;;;;;;;6.40;3.70;;;;;;;1.49;100.00;96825.88;5057331;28;20218;-72
2021/01/18 01:55:35;;;;;;;7.00;3.97;;;;;;;1.43;100.00;96834.06;5057655;28;20238;-71
2021/01/18 01:58:03;;;;;;;7.60;2.97;;;;;;;1.45;100.00;96837.41;5057929;28;20220;-72
2021/01/18 02:00:36;;;;;;;5.87;3.47;;;;;;;1.46;100.00;96835.63;5057182;28;20201;-71
2021/01/18 02:03:05;;;;;;;6.10;3.40;;;;;;;1.45;100.00;96849.53;5057610;28;20200;-73
2021/01/18 02:05:31;;;;;;;6.13;3.37;;;;;;;1.44;100.00;96846.13;5057065;28;20224;-71
2021/01/18 02:07:59;;;;;;;6.63;3.47;;;;;;;1.48;100.00;96844.16;5057447;28;21194;-70
2021/01/18 02:10:26;;;;;;;7.90;3.33;;;;;;;1.53;100.00;96852.47;5057541;28;20214;-72
2021/01/18 02:12:53;;;;;;;8.07;3.43;;;;;;;1.50;100.00;96858.69;5057539;28;20210;-73
2021/01/18 02:15:38;;;;;;;4.53;3.00;;;;;;;1.54;100.00;96862.72;5056639;28;20229;-70
2021/01/18 02:18:19;;;;;;;6.43;3.53;;;;;;;1.59;100.00;96862.41;5056854;28;20225;-71
2021/01/18 02:21:39;;;;;;;7.37;3.43;;;;;;;1.57;100.00;96862.50;5057476;28;20211;-70
2021/01/18 02:24:26;;;;;;;5.77;3.33;;;;;;;1.40;100.00;96865.47;5056771;28;20201;-72
2021/01/18 02:27:11;;;;;;;5.50;3.30;;;;;;;1.47;100.00;96858.88;5056605;28;20232;-72
2021/01/18 02:29:55;;;;;;;5.87;3.47;;;;;;;1.47;100.00;96858.88;5057080;28;20211;-72
2021/01/18 02:32:54;;;;;;;6.57;3.50;;;;;;;1.53;100.00;96862.84;5057036;28;20210;-73
2021/01/18 02:35:58;;;;;;;6.70;3.30;;;;;;;1.47;100.00;96861.47;5056654;28;20596;-73
2021/01/18 02:38:30;;;;;;;8.27;3.30;;;;;;;1.46;100.00;96866.78;5056683;28;20765;-72
2021/01/18 02:41:10;;;;;;;5.77;2.60;;;;;;;1.51;100.00;96870.72;5056858;28;20205;-70
2021/01/18 02:43:42;;;;;;;7.07;4.13;;;;;;;1.50;100.00;96863.88;5057344;28;20211;-73
2021/01/18 02:46:10;;;;;;;8.17;4.37;;;;;;;1.46;100.00;96865.00;5055439;28;20231;-71
2021/01/18 02:48:38;;;;;;;6.47;2.43;;;;;;;1.44;100.00;96874.69;5056733;28;20210;-73
2021/01/18 02:51:07;;;;;;;5.63;3.20;;;;;;;1.50;100.00;96874.28;5056955;28;20281;-71
2021/01/18 02:53:34;;;;;;;6.43;3.73;;;;;;;1.47;100.00;96874.47;5056771;28;20242;-70
2021/01/18 02:56:00;;;;;;;9.87;4.13;;;;;;;1.45;100.00;96871.16;5056181;28;20319;-73
2021/01/18 02:58:28;;;;;;;8.07;3.80;;;;;;;1.45;100.00;96867.72;5056878;28;20231;-71
2021/01/18 03:01:09;;;;;;;7.40;4.00;;;;;;;1.33;100.00;96868.59;5056613;28;21092;-70
2021/01/18 03:03:48;;;;;;;7.13;3.77;;;;;;;1.36;100.00;96871.81;5054283;28;20265;-72
2021/01/18 03:06:18;;;;;;;11.17;3.70;;;;;;;1.40;100.00;96864.59;5056134;28;20253;-72
2021/01/18 03:08:50;;;;;;;6.17;2.80;;;;;;;1.41;100.00;96869.72;5055486;28;20207;-71
2021/01/18 03:11:22;;;;;;;7.77;4.17;;;;;;;1.38;100.00;96882.91;5055944;28;20196;-72
2021/01/18 03:13:56;;;;;;;6.07;3.57;;;;;;;1.38;100.00;96875.09;5056828;28;20290;-72
2021/01/18 03:16:24;;;;;;;9.73;3.70;;;;;;;1.37;100.00;96877.81;5055797;28;20215;-70
2021/01/18 03:18:53;;;;;;;8.90;4.40;;;;;;;1.33;100.00;96882.38;5056200;28;20231;-70
2021/01/18 03:21:19;;;;;;;8.57;4.00;;;;;;;1.31;100.00;96886.03;5056585;28;20200;-73
2021/01/18 03:23:46;;;;;;;9.33;4.10;;;;;;;1.24;100.00;96883.00;5056524;28;20211;-73
2021/01/18 03:26:13;;;;;;;10.00;3.77;;;;;;;1.39;100.00;96875.97;5055261;28;20258;-72
2021/01/18 03:28:40;;;;;;;8.87;4.40;;;;;;;1.36;100.00;96877.00;5056792;28;20196;-72
2021/01/18 03:31:06;;;;;;;10.47;4.47;;;;;;;1.30;100.00;96877.41;5056468;28;20200;-70
2021/01/18 03:33:32;;;;;;;8.83;4.70;;;;;;;1.35;100.00;96874.47;5055948;28;20216;-72
2021/01/18 03:35:58;;;;;;;8.43;4.17;;;;;;;1.36;100.00;96876.16;5055721;28;20231;-73
2021/01/18 03:38:25;;;;;;;10.70;4.50;;;;;;;1.35;100.00;96883.13;5056337;28;20217;-70
2021/01/18 03:40:52;;;;;;;10.70;4.13;;;;;;;1.27;100.00;96890.63;5056365;28;20242;-72
2021/01/18 03:43:19;;;;;;;7.20;4.47;;;;;;;1.33;100.00;96894.53;5056235;28;20215;-71
2021/01/18 03:45:45;;;;;;;12.77;5.33;;;;;;;1.35;100.00;96890.91;5055728;28;20224;-72
2021/01/18 03:48:12;;;;;;;10.07;4.50;;;;;;;1.44;100.00;96889.41;5056236;28;20200;-72
2021/01/18 03:50:39;;;;;;;10.90;5.10;;;;;;;1.38;100.00;96889.88;5055998;28;20291;-72
2021/01/18 03:53:06;;;;;;;11.13;3.87;;;;;;;1.27;100.00;96893.22;5056521;28;20556;-71
2021/01/18 03:55:32;;;;;;;10.47;4.57;;;;;;;1.31;100.00;96892.06;5055521;28;20228;-72
2021/01/18 03:57:59;;;;;;;13.13;5.03;;;;;;;1.24;100.00;96885.63;5055862;28;20235;-72
2021/01/18 04:00:27;;;;;;;10.47;5.07;;;;;;;1.25;100.00;96884.69;5056120;28;20663;-72
2021/01/18 04:02:53;;;;;;;9.93;4.37;;;;;;;1.28;100.00;96875.84;5056257;28;20218;-71
2021/01/18 04:05:20;;;;;;;9.73;4.53;;;;;;;1.37;100.00;96877.81;5055000;28;20224;-71
2021/01/18 04:07:47;;;;;;;10.87;5.80;;;;;;;1.32;100.00;96880.75;5055996;28;20215;-73
2021/01/18 04:10:16;;;;;;;16.60;6.20;;;;;;;1.41;100.00;96872.31;5056189;28;21276;-73
2021/01/18 04:12:43;;;;;;;18.03;6.87;;;;;;;1.33;100.00;96876.38;5055947;28;20208;-71
2021/01/18 04:15:13;;;;;;;14.33;6.97;;;;;;;1.35;100.00;96885.72;5055045;28;20292;-73
2021/01/18 04:17:40;;;;;;;11.73;6.40;;;;;;;1.39;100.00;96887.16;5055736;28;20288;-72
2021/01/18 04:20:07;;;;;;;15.53;5.93;;;;;;;1.33;100.00;96882.38;5055506;28;20212;-72
2021/01/18 04:22:33;;;;;;;12.93;5.70;;;;;;;1.33;100.00;96882.38;5059776;28;20203;-72
2021/01/18 04:24:59;;;;;;;11.03;5.27;;;;;;;1.32;100.00;96882.50;5059747;28;20314;-72
2021/01/18 04:27:25;;;;;;;8.03;3.80;;;;;;;1.35;100.00;96885.72;5059178;28;20260;-72
2021/01/18 04:29:51;;;;;;;11.43;5.47;;;;;;;1.32;100.00;96880.75;5059436;28;20212;-72
2021/01/18 04:32:18;;;;;;;13.67;5.57;;;;;;;1.29;100.00;96886.13;5059180;28;20221;-73
2021/01/18 04:34:44;;;;;;;14.30;6.33;;;;;;;1.27;100.00;96888.03;5059515;28;20582;-72
2021/01/18 04:37:10;;;;;;;12.13;5.60;;;;;;;1.31;100.00;96884.28;5058325;28;20280;-72
2021/01/18 04:39:36;;;;;;;14.00;6.07;;;;;;;1.31;100.00;96888.59;5059635;28;21248;-73
2021/01/18 04:42:02;;;;;;;15.83;6.13;;;;;;;1.27;100.00;96893.22;5059748;28;20207;-72
2021/01/18 04:44:29;;;;;;;12.23;5.47;;;;;;;1.28;100.00;96887.06;5058929;28;20203;-73
2021/01/18 04:46:55;;;;;;;12.60;4.23;;;;;;;1.28;100.00;96889.66;5058334;28;20240;-73
2021/01/18 04:49:24;;;;;;;11.60;5.47;;;;;;;1.19;100.00;96890.28;5059177;28;20210;-73
2021/01/18 04:51:55;;;;;;;11.80;5.97;;;;;;;1.20;100.00;96891.13;5058897;28;20233;-72
2021/01/18 04:54:23;;;;;;;15.17;6.10;;;;;;;1.19;100.00;96899.03;5059311;28;20212;-72
2021/01/18 04:57:13;;;;;;;11.23;6.03;;;;;;;1.14;100.00;96901.91;5058105;28;20235;-72
2021/01/18 04:59:43;;;;;;;12.40;6.13;;;;;;;1.15;100.00;96895.00;5059185;28;20211;-72
2021/01/18 05:02:13;;;;;;;8.10;4.30;;;;;;;1.13;100.00;96894.25;5059070;28;20203;-72
2021/01/18 05:04:42;;;;;;;11.30;5.93;;;;;;;1.12;100.00;96895.19;5059368;28;20226;-72
2021/01/18 05:07:55;;;;;;;13.37;6.60;;;;;;;1.17;100.00;96899.09;5058081;28;20216;-72
2021/01/18 05:10:27;;;;;;;10.43;5.87;;;;;;;1.15;100.00;96902.78;5058758;28;20208;-72
2021/01/18 05:12:57;;;;;;;13.03;5.83;;;;;;;1.23;100.00;96896.09;5059066;28;20251;-71
2021/01/18 05:15:24;;;;;;;15.97;5.23;;;;;;;1.19;100.00;96893.84;5058173;28;21135;-71
2021/01/18 05:17:57;;;;;;;10.37;5.07;;;;;;;1.17;100.00;96903.47;5058397;28;20228;-72
2021/01/18 05:20:24;;;;;;;16.40;6.23;;;;;;;1.21;100.00;96900.59;5058714;28;20227;-73
2021/01/18 05:22:51;;;;;;;10.47;5.63;;;;;;;1.23;100.00;96911.69;5058668;28;20204;-72
2021/01/18 05:25:18;;;;;;;12.67;5.53;;;;;;;1.20;100.00;96902.34;5057758;28;20262;-72
2021/01/18 05:27:58;;;;;;;15.63;5.90;;;;;;;1.20;100.00;96904.94;5058479;28;20207;-73
2021/01/18 05:30:24;;;;;;;12.63;5.80;;;;;;;1.28;100.00;96897.44;5058250;28;21128;-72
2021/01/18 05:33:00;;;;;;;11.33;5.63;;;;;;;1.19;100.00;96905.84;5058089;28;20207;-72
2021/01/18 05:35:27;;;;;;;13.13;4.57;;;;;;;1.38;100.00;96900.25;5057531;28;20571;-72
2021/01/18 05:38:00;;;;;;;11.67;5.40;;;;;;;1.27;100.00;96903.59;5057768;28;20231;-73
2021/01/18 05:40:28;;;;;;;10.87;5.73;;;;;;;1.31;100.00;96905.03;5057708;28;20207;-72
2021/01/18 05:42:59;;;;;;;14.40;5.57;;;;;;;1.30;100.00;96908.56;5058746;28;20212;-72
2021/01/18 05:45:31;;;;;;;8.23;4.73;;;;;;;1.30;100.00;96918.94;5056668;28;20227;-72
2021/01/18 05:47:58;;;;;;;12.37;5.30;;;;;;;1.33;100.00;96912.72;5058046;28;20223;-72
2021/01/18 05:50:25;;;;;;;8.37;4.27;;;;;;;1.32;100.00;96918.84;5057716;28;20196;-72
2021/01/18 05:52:52;;;;;;;14.83;6.03;;;;;;;1.40;100.00;96913.94;5057782;28;20572;-72
2021/01/18 05:55:21;;;;;;;13.17;5.53;;;;;;;1.35;100.00;96916.88;5056749;28;20733;-72
2021/01/18 05:57:50;;;;;;;10.97;4.87;;;;;;;1.39;100.00;96914.91;5057443;28;20314;-72
2021/01/18 06:00:30;;;;;;;10.23;5.37;;;;;;;1.35;100.00;96916.03;5057985;28;20200;-72
2021/01/18 06:02:59;;;;;;;10.57;4.47;;;;;;;1.35;100.00;96922.06;5057690;28;20219;-72
2021/01/18 06:05:30;;;;;;;12.53;5.23;;;;;;;1.37;100.00;96922.78;5056970;28;20919;-72
2021/01/18 06:08:11;;;;;;;10.17;3.97;;;;;;;1.40;100.00;96921.72;5057854;28;20201;-73
2021/01/18 06:10:37;;;;;;;9.17;4.93;;;;;;;1.43;100.00;96919.75;5057653;28;20208;-73
2021/01/18 06:13:03;;;;;;;13.60;5.33;;;;;;;1.40;100.00;96925.19;5057573;28;20737;-73
2021/01/18 06:15:29;;;;;;;12.77;5.23;;;;;;;1.44;100.00;96923.19;5056703;28;20239;-73
2021/01/18 06:17:57;;;;;;;13.47;5.70;;;;;;;1.50;100.00;96926.22;5057129;28;20225;-73
2021/01/18 06:20:25;;;;;;;12.27;4.97;;;;;;;1.51;100.00;96930.44;5057481;28;20250;-73
2021/01/18 06:22:52;;;;;;;10.73;5.10;;;;;;;1.58;100.00;96926.50;5057285;28;20213;-73
2021/01/18 06:25:20;;;;;;;11.07;4.93;;;;;;;1.56;100.00;96933.56;5056744;28;20277;-72
2021/01/18 06:27:46;;;;;;;13.90;6.23;;;;;;;1.35;100.00;96940.22;5057001;28;20212;-74
2021/01/18 06:30:26;;;;;;;16.10;6.37;;;;;;;1.24;100.00;96949.69;5057722;28;20196;-73
2021/01/18 06:32:54;;;;;;;17.23;7.07;;;;;;;1.12;100.00;96954.88;5056773;28;20214;-73
2021/01/18 06:35:26;;;;;;;19.83;7.93;;;;;;;1.16;100.00;96956.31;5056423;28;20238;-73
2021/01/18 06:37:57;;;;;;;17.80;8.47;;;;;;;1.15;100.00;96959.88;5057348;28;20231;-74
2021/01/18 06:40:33;;;;;;;16.30;7.90;;;;;;;1.07;100.00;96969.91;5056800;28;20200;-73
2021/01/18 06:42:59;;;;;;;16.40;7.13;;;;;;;1.10;100.00;96975.72;5056636;28;20214;-73
2021/01/18 06:45:34;;;;;;;23.10;9.83;;;;;;;1.06;100.00;96971.69;5056837;28;20222;-73
2021/01/18 06:48:02;;;;;;;20.30;7.87;;;;;;;1.09;100.00;96973.25;5056895;28;21176;-73
2021/01/18 06:50:34;;;;;;;18.30;7.73;;;;;;;1.07;100.00;96982.88;5057153;28;20212;-73
2021/01/18 06:53:16;;;;;;;16.27;6.83;;;;;;;1.05;100.00;96987.34;5058092;28;20205;-73
2021/01/18 06:56:15;;;;;;;16.57;7.60;;;;;;;1.08;100.00;96977.59;5056151;28;20256;-74
2021/01/18 06:58:54;;;;;;;21.90;8.87;;;;;;;1.14;100.00;96976.38;5056830;28;20238;-73
2021/01/18 07:01:32;;;;;;;17.47;8.37;;;;;;;1.04;100.00;96993.47;5057239;28;20208;-73
2021/01/18 07:04:04;;;;;;;20.57;8.33;;;;;;;1.05;100.00;96992.56;5056830;28;20213;-73
2021/01/18 07:06:32;;;;;;;21.27;8.20;;;;;;;1.03;100.00;96997.84;5056075;28;20262;-73
2021/01/18 07:09:01;;;;;;;19.93;8.60;;;;;;;1.01;100.00;96998.88;5057652;28;20223;-73
2021/01/18 07:11:28;;;;;;;20.23;8.93;;;;;;;1.07;100.00;97001.03;5056783;28;20301;-73
2021/01/18 07:13:54;;;;;;;20.83;7.80;;;;;;;1.04;100.00;97009.03;5057126;28;20232;-73
2021/01/18 07:16:22;;;;;;;19.17;7.67;;;;;;;0.96;100.00;97000.94;5056155;28;20222;-74
2021/01/18 07:18:56;;;;;;;17.90;6.97;;;;;;;1.02;100.00;97006.56;5056676;28;20243;-72
2021/01/18 07:21:26;;;;;;;17.93;7.70;;;;;;;1.01;100.00;97004.88;5057057;28;20204;-73
2021/01/18 07:23:54;;;;;;;19.47;6.90;;;;;;;1.04;100.00;97003.84;5057292;28;20200;-73
2021/01/18 07:26:37;;;;;;;15.30;6.80;;;;;;;1.02;100.00;97005.72;5056091;28;20234;-73
2021/01/18 07:29:05;;;;;;;19.50;6.83;;;;;;;1.01;100.00;97012.66;5056903;28;20200;-73
2021/01/18 07:31:33;;;;;;;17.80;6.93;;;;;;;1.01;100.00;97011.84;5056980;28;20223;-72
2021/01/18 07:33:59;;;;;;;18.63;7.17;;;;;;;1.04;100.00;97017.66;5056839;28;20199;-74
2021/01/18 07:36:27;;;;;;;22.70;7.13;;;;;;;1.09;100.00;97022.56;5056757;28;20234;-73
2021/01/18 07:38:53;;;;;;;26.47;7.57;;;;;;;1.09;100.00;97027.75;5057134;28;20217;-73
2021/01/18 07:41:20;;;;;;;22.47;7.03;;;;;;;1.14;100.00;97025.69;5056795;28;20196;-73
2021/01/18 07:43:49;;;;;;;15.57;6.60;;;;;;;1.23;100.00;97031.94;5056654;28;20619;-72
2021/01/18 07:46:40;;;;;;;19.00;6.33;;;;;;;1.20;100.00;97033.88;5056441;28;21161;-74
2021/01/18 07:49:42;;;;;;;14.03;5.80;;;;;;;1.20;100.00;97036.47;5056258;28;20459;-72
2021/01/18 07:52:16;;;;;;;13.87;4.83;;;;;;;1.17;100.00;97036.66;5056951;28;20206;-73
2021/01/18 07:54:43;;;;;;;12.53;5.10;;;;;;;1.24;100.00;97043.13;5057361;28;20214;-73
2021/01/18 07:57:39;;;;;;;12.37;5.77;;;;;;;1.26;100.00;97036.91;5059517;28;20269;-74
2021/01/18 08:00:29;;;;;;;14.07;7.00;;;;;;;1.22;100.00;97050.19;5025655;28;20207;-74
2021/01/18 08:03:24;;;;;;;12.87;6.30;;;;;;;1.21;100.00;97043.34;5060135;28;20258;-72
2021/01/18 08:06:05;;;;;;;15.77;5.90;;;;;;;1.24;100.00;97051.75;5053119;28;20227;-73
2021/01/18 08:08:31;;;;;;;15.77;5.87;;;;;;;1.33;100.00;97045.94;5060677;28;20207;-73
2021/01/18 08:10:59;;;;;;;17.07;5.90;;;;;;;1.41;100.00;97046.28;5060288;28;20250;-73
2021/01/18 08:13:30;;;;;;;15.60;5.97;;;;;;;1.43;100.00;97054.78;5059913;28;20218;-74
2021/01/18 08:15:57;;;;;;;18.43;6.53;;;;;;;1.44;100.00;97061.66;5059563;28;20726;-73
2021/01/18 08:18:28;;;;;;;19.00;7.07;;;;;;;1.45;100.00;97054.69;5060240;28;20240;-73
2021/01/18 08:20:54;;;;;;;13.13;5.57;;;;;;;1.41;100.00;97061.84;5060066;28;20203;-72
2021/01/18 08:23:42;;;;;;;14.27;5.87;;;;;;;1.49;100.00;97059.56;5060204;28;20206;-72
2021/01/18 08:26:09;;;;;;;14.63;6.03;;;;;;;1.55;100.00;97058.31;5059522;28;20231;-72
2021/01/18 08:28:35;;;;;;;14.80;7.10;;;;;;;1.58;100.00;97064.16;5056588;28;20203;-72
2021/01/18 08:31:03;;;;;;;11.07;5.33;;;;;;;1.63;100.00;97064.69;5058787;28;20211;-72
2021/01/18 08:33:29;;;;;;;13.50;5.30;;;;;;;1.59;100.00;97071.03;5058784;28;20205;-72
2021/01/18 08:35:57;;;;;;;16.63;6.43;;;;;;;1.58;100.00;97066.75;5058488;28;20235;-72
2021/01/18 08:38:26;;;;;;;7.80;3.63;;;;;;;1.52;100.00;97069.75;5059115;28;20757;-72
2021/01/18 08:40:53;;;;;;;10.03;5.30;;;;;;;1.54;100.00;97075.69;5059144;28;20992;-72
2021/01/18 08:43:21;;;;;;;11.73;5.50;;;;;;;1.62;100.00;97072.56;5058344;28;20196;-72
2021/01/18 08:45:48;;;;;;;14.10;5.17;;;;;;;1.66;100.00;97063.63;5057939;28;20227;-72
2021/01/18 08:48:20;;;;;;;14.23;5.93;;;;;;;1.76;100.00;97067.25;5058956;28;20248;-72
2021/01/18 08:50:52;;;;;;;14.23;5.27;;;;;;;1.82;100.00;97070.28;5058215;28;20204;-73
2021/01/18 08:53:32;;;;;;;15.53;6.20;;;;;;;1.87;100.00;97070.78;5058556;28;20734;-72
2021/01/18 08:56:00;;;;;;;17.43;4.73;;;;;;;1.83;100.00;97074.53;5058518;28;20977;-72
2021/01/18 08:58:40;;;;;;;14.90;5.47;;;;;;;1.85;100.00;97073.50;5058241;28;20223;-73
2021/01/18 09:01:10;;;;;;;14.37;5.23;;;;;;;1.87;100.00;97070.78;5058625;28;21121;-72
2021/01/18 09:03:37;;;;;;;8.63;4.83;;;;;;;1.97;100.00;97077.88;5059191;28;20204;-72
2021/01/18 09:06:03;;;;;;;11.13;4.17;;;;;;;1.92;100.00;97074.75;5053774;28;20404;-72
2021/01/18 09:08:30;;;;;;;6.83;3.57;;;;;;;1.90;100.00;97070.59;5058622;28;20201;-72
2021/01/18 09:10:57;;;;;;;15.80;4.40;;;;;;;1.92;100.00;97072.16;5058410;28;20203;-72
2021/01/18 09:13:25;;;;;;;14.50;4.80;;;;;;;1.99;100.00;97081.19;5059019;28;20212;-73
2021/01/18 09:15:52;;;;;;;3.67;2.10;;;;;;;1.92;100.00;97073.91;5056925;28;20231;-72
2021/01/18 09:18:18;;;;;;;13.50;5.40;;;;;;;1.99;100.00;97073.38;5058951;28;20281;-73
2021/01/18 09:20:46;;;;;;;15.17;5.33;;;;;;;2.23;100.00;97081.25;5058717;28;20223;-74
2021/01/18 09:23:14;;;;;;;13.67;5.40;;;;;;;2.19;100.00;97077.22;5058965;28;20204;-72
2021/01/18 09:25:40;;;;;;;10.90;4.37;;;;;;;2.05;100.00;97074.72;5058065;28;20250;-71
2021/01/18 09:28:08;;;;;;;15.23;4.57;;;;;;;2.18;100.00;97081.59;5059014;28;20196;-72
2021/01/18 09:30:35;;;;;;;10.80;5.17;;;;;;;2.13;100.00;97083.66;5059298;28;20208;-72
2021/01/18 09:33:03;;;;;;;7.90;3.77;;;;;;;2.17;100.00;97081.69;5058973;28;20204;-72
2021/01/18 09:35:31;;;;;;;11.00;5.00;;;;;;;2.31;100.00;97078.97;5058022;28;20228;-72
2021/01/18 09:37:58;;;;;;;12.20;5.07;;;;;;;2.35;100.00;97077.81;5058918;28;20665;-72
2021/01/18 09:40:25;;;;;;;12.67;5.60;;;;;;;2.62;100.00;97081.91;5055167;28;20318;-72
2021/01/18 09:42:52;;;;;;;9.97;3.80;;;;;;;2.66;100.00;97083.34;5057768;28;20789;-73
2021/01/18 09:45:18;;;;;;;10.10;5.23;;;;;;;2.83;100.00;97081.19;5056969;28;20217;-73
2021/01/18 09:47:44;;;;;;;11.50;5.13;;;;;;;2.89;100.00;97083.38;5058877;28;20201;-73
2021/01/18 09:50:12;;;;;;;10.33;4.90;;;;;;;2.93;100.00;97077.00;5058643;28;20205;-73
2021/01/18 09:52:40;;;;;;;12.23;4.70;;;;;;;2.86;100.00;97080.97;5058391;28;20208;-73
2021/01/18 09:55:11;;;;;;;9.37;5.07;;;;;;;2.88;100.00;97088.66;5057401;28;20209;-73
2021/01/18 09:57:40;;;;;;;14.40;5.50;;;;;;;2.76;100.00;97089.56;5057755;28;20217;-72
2021/01/18 10:00:09;;;;;;;11.17;5.27;;;;;;;2.71;100.00;97087.28;5058949;28;20200;-73
2021/01/18 10:02:40;;;;;;;10.73;4.33;;;;;;;2.50;100.00;97098.38;5058601;28;20204;-72
2021/01/18 10:05:07;;;;;;;13.77;6.00;;;;;;;2.73;100.00;97085.41;5057151;28;20237;-73
2021/01/18 10:07:39;;;;;;;8.73;4.60;;;;;;;2.75;100.00;97093.94;5058861;28;20212;-73
2021/01/18 10:10:07;;;;;;;12.20;4.90;;;;;;;2.88;100.00;97089.50;5058148;28;20217;-73
2021/01/18 10:12:38;;;;;;;14.70;5.20;;;;;;;3.07;100.00;97093.28;5057590;28;20261;-73
2021/01/18 10:15:05;;;;;;;11.17;4.90;;;;;;;2.92;100.00;97088.34;5056708;28;20203;-72
2021/01/18 10:17:31;;;;;;;12.73;4.63;;;;;;;2.99;100.00;97086.13;5056953;28;20204;-72
2021/01/18 10:20:07;;;;;;;7.10;3.37;;;;;;;2.88;100.00;97083.47;5056144;28;20212;-72
2021/01/18 10:22:37;;;;;;;11.70;5.20;;;;;;;2.97;100.00;97078.44;5056428;28;20204;-74
2021/01/18 10:25:09;;;;;;;13.23;4.83;;;;;;;3.11;100.00;97080.88;5056941;28;20212;-72
2021/01/18 10:27:36;;;;;;;12.23;5.33;;;;;;;3.07;100.00;97084.66;5057314;28;20572;-72
2021/01/18 10:30:13;;;;;;;13.33;5.30;;;;;;;3.03;100.00;97083.22;5057550;28;20200;-73
2021/01/18 10:32:41;;;;;;;12.37;5.60;;;;;;;2.98;100.00;97081.88;5056987;28;20659;-72
2021/01/18 10:35:19;;;;;;;13.20;4.57;;;;;;;2.87;100.00;97082.63;5057035;28;20197;-72
2021/01/18 10:37:45;;;;;;;15.00;5.63;;;;;;;2.81;100.00;97075.25;5057385;28;20270;-73
2021/01/18 10:40:13;;;;;;;11.40;4.83;;;;;;;2.84;100.00;97069.84;5057918;28;20207;-72
2021/01/18 10:42:48;;;;;;;11.93;5.03;;;;;;;2.74;100.00;97070.63;5057402;28;20215;-73
2021/01/18 10:45:16;;;;;;;15.57;4.77;;;;;;;2.86;100.00;97069.75;5056228;28;20788;-74
2021/01/18 10:47:53;;;;;;;11.90;5.17;;;;;;;3.01;100.00;97073.84;5057554;28;20232;-72
2021/01/18 10:50:23;;;;;;;9.57;4.17;;;;;;;3.00;100.00;97059.97;5056588;28;20266;-70
2021/01/18 10:52:49;;;;;;;12.40;4.93;;;;;;;2.91;100.00;97063.25;5056900;28;20261;-70
2021/01/18 10:55:17;;;;;;;11.13;5.13;;;;;;;2.83;100.00;97054.34;5056383;28;20217;-71
2021/01/18 10:57:45;;;;;;;13.17;5.00;;;;;;;2.76;100.00;97059.19;5056703;28;20230;-70
2021/01/18 11:00:13;;;;;;;11.57;5.13;;;;;;;2.73;100.00;97064.59;5057280;28;20629;-70
2021/01/18 11:02:41;;;;;;;14.57;6.93;;;;;;;2.91;100.00;97060.66;5056962;28;20208;-70
2021/01/18 11:05:08;;;;;;;11.47;5.87;;;;;;;3.00;100.00;97054.78;5055115;28;20199;-71
2021/01/18 11:07:35;;;;;;;13.33;4.77;;;;;;;2.85;100.00;97068.94;5056210;28;20204;-71
2021/01/18 11:10:01;;;;;;;9.97;5.10;;;;;;;2.79;100.00;97058.94;5057112;28;20476;-72
2021/01/18 11:12:31;;;;;;;12.00;5.27;;;;;;;2.67;100.00;97054.63;5055854;28;20691;-70
2021/01/18 11:15:01;;;;;;;13.17;5.17;;;;;;;2.77;100.00;97050.41;5055640;28;20373;-70
2021/01/18 11:17:28;;;;;;;14.33;5.23;;;;;;;2.83;100.00;97049.97;5056815;28;20252;-70
2021/01/18 11:19:54;;;;;;;10.60;4.73;;;;;;;2.85;100.00;97047.25;5056593;28;20281;-72
2021/01/18 11:22:20;;;;;;;11.77;5.17;;;;;;;2.94;100.00;97046.59;5055705;28;20200;-71
2021/01/18 11:24:46;;;;;;;12.40;5.10;;;;;;;2.85;100.00;97045.50;5055781;28;20475;-71
2021/01/18 11:27:13;;;;;;;14.83;5.20;;;;;;;2.88;100.00;97050.47;5056001;28;20225;-72
2021/01/18 11:29:39;;;;;;;11.87;4.23;;;;;;;2.79;100.00;97040.72;5055651;28;20216;-70
2021/01/18 11:32:06;;;;;;;10.93;4.67;;;;;;;2.77;100.00;97041.78;5056144;28;20211;-72
2021/01/18 11:34:33;;;;;;;8.47;4.43;;;;;;;2.64;100.00;97041.81;5056400;28;20218;-71
2021/01/18 11:37:02;;;;;;;6.63;2.10;;;;;;;2.60;100.00;97037.78;5055510;28;20342;-70
2021/01/18 11:39:28;;;;;;;11.40;5.10;;;;;;;2.51;100.00;97043.63;5056175;28;20428;-70
2021/01/18 11:41:54;;;;;;;9.70;4.17;;;;;;;2.51;100.00;97045.44;5056174;28;20436;-72